sensor_id;sensor_type;location;lat;lon;timestamp;temperature;humidity
37560;DHT22;23398;50.928;7.084;2022-08-18T00:02:17;20.70;73.50
37560;DHT22;23398;50.928;7.084;2022-08-18T00:04:44;20.60;73.60
37560;DHT22;23398;50.928;7.084;2022-08-18T00:07:16;20.50;72.80
37560;DHT22;23398;50.928;7.084;2022-08-18T00:09:42;20.50;72.50
37560;DHT22;23398;50.928;7.084;2022-08-18T00:12:14;20.40;72.20
37560;DHT22;23398;50.928;7.084;2022-08-18T00:14:40;20.40;72.10
37560;DHT22;23398;50.928;7.084;2022-08-18T00:17:05;20.40;72.40
37560;DHT22;23398;50.928;7.084;2022-08-18T00:19:31;20.30;73.20
37560;DHT22;23398;50.928;7.084;2022-08-18T00:21:57;20.20;73.30
37560;DHT22;23398;50.928;7.084;2022-08-18T00:24:23;20.20;73.30
37560;DHT22;23398;50.928;7.084;2022-08-18T00:26:49;20.20;72.90
37560;DHT22;23398;50.928;7.084;2022-08-18T00:29:15;20.10;73.80
37560;DHT22;23398;50.928;7.084;2022-08-18T00:31:40;20.00;73.20
37560;DHT22;23398;50.928;7.084;2022-08-18T00:34:06;20.00;73.20
37560;DHT22;23398;50.928;7.084;2022-08-18T00:36:32;19.90;73.10
37560;DHT22;23398;50.928;7.084;2022-08-18T00:38:59;19.90;73.30
37560;DHT22;23398;50.928;7.084;2022-08-18T00:41:25;19.90;73.60
37560;DHT22;23398;50.928;7.084;2022-08-18T00:43:52;19.80;73.90
37560;DHT22;23398;50.928;7.084;2022-08-18T00:46:20;19.80;74.60
37560;DHT22;23398;50.928;7.084;2022-08-18T00:48:46;19.70;74.80
37560;DHT22;23398;50.928;7.084;2022-08-18T00:51:28;19.70;75.20
37560;DHT22;23398;50.928;7.084;2022-08-18T00:56:37;19.60;76.50
37560;DHT22;23398;50.928;7.084;2022-08-18T00:59:11;19.60;76.20
37560;DHT22;23398;50.928;7.084;2022-08-18T01:01:40;19.50;76.80
37560;DHT22;23398;50.928;7.084;2022-08-18T01:04:32;19.50;76.80
37560;DHT22;23398;50.928;7.084;2022-08-18T01:07:06;19.50;77.90
37560;DHT22;23398;50.928;7.084;2022-08-18T01:09:32;19.50;77.20
37560;DHT22;23398;50.928;7.084;2022-08-18T01:11:58;19.40;77.00
37560;DHT22;23398;50.928;7.084;2022-08-18T01:14:23;19.50;77.10
37560;DHT22;23398;50.928;7.084;2022-08-18T01:16:49;19.40;76.90
37560;DHT22;23398;50.928;7.084;2022-08-18T01:19:35;19.40;76.60
37560;DHT22;23398;50.928;7.084;2022-08-18T01:22:30;19.40;76.00
37560;DHT22;23398;50.928;7.084;2022-08-18T01:25:00;19.30;75.90
37560;DHT22;23398;50.928;7.084;2022-08-18T01:27:44;19.30;76.40
37560;DHT22;23398;50.928;7.084;2022-08-18T01:30:14;19.30;77.00
37560;DHT22;23398;50.928;7.084;2022-08-18T01:32:41;19.30;77.50
37560;DHT22;23398;50.928;7.084;2022-08-18T01:35:09;19.30;77.20
37560;DHT22;23398;50.928;7.084;2022-08-18T01:37:36;19.20;76.80
37560;DHT22;23398;50.928;7.084;2022-08-18T01:40:05;19.20;76.60
37560;DHT22;23398;50.928;7.084;2022-08-18T01:42:31;19.20;76.50
37560;DHT22;23398;50.928;7.084;2022-08-18T01:44:57;19.20;76.50
37560;DHT22;23398;50.928;7.084;2022-08-18T01:47:22;19.20;76.40
37560;DHT22;23398;50.928;7.084;2022-08-18T01:49:48;19.10;76.70
37560;DHT22;23398;50.928;7.084;2022-08-18T01:52:17;19.10;77.40
37560;DHT22;23398;50.928;7.084;2022-08-18T01:54:47;19.10;77.20
37560;DHT22;23398;50.928;7.084;2022-08-18T01:57:14;19.00;77.40
37560;DHT22;23398;50.928;7.084;2022-08-18T01:59:43;19.10;77.80
37560;DHT22;23398;50.928;7.084;2022-08-18T02:02:13;19.10;78.10
37560;DHT22;23398;50.928;7.084;2022-08-18T02:04:41;19.00;77.90
37560;DHT22;23398;50.928;7.084;2022-08-18T02:07:10;19.00;77.80
37560;DHT22;23398;50.928;7.084;2022-08-18T02:09:38;18.90;77.80
37560;DHT22;23398;50.928;7.084;2022-08-18T02:12:05;18.90;78.10
37560;DHT22;23398;50.928;7.084;2022-08-18T02:14:32;18.90;78.00
37560;DHT22;23398;50.928;7.084;2022-08-18T02:17:00;18.90;78.10
37560;DHT22;23398;50.928;7.084;2022-08-18T02:19:26;18.90;78.10
37560;DHT22;23398;50.928;7.084;2022-08-18T02:21:52;18.80;78.00
37560;DHT22;23398;50.928;7.084;2022-08-18T02:24:18;18.80;78.00
37560;DHT22;23398;50.928;7.084;2022-08-18T02:26:44;18.80;77.70
37560;DHT22;23398;50.928;7.084;2022-08-18T02:29:10;18.80;77.70
37560;DHT22;23398;50.928;7.084;2022-08-18T02:31:35;18.80;78.00
37560;DHT22;23398;50.928;7.084;2022-08-18T02:34:01;18.70;78.10
37560;DHT22;23398;50.928;7.084;2022-08-18T02:36:27;18.70;78.40
37560;DHT22;23398;50.928;7.084;2022-08-18T02:38:53;18.70;78.80
37560;DHT22;23398;50.928;7.084;2022-08-18T02:41:19;18.70;78.40
37560;DHT22;23398;50.928;7.084;2022-08-18T02:43:45;18.60;78.60
37560;DHT22;23398;50.928;7.084;2022-08-18T02:46:13;18.60;78.50
37560;DHT22;23398;50.928;7.084;2022-08-18T02:48:38;18.60;78.30
37560;DHT22;23398;50.928;7.084;2022-08-18T02:51:10;18.60;78.60
37560;DHT22;23398;50.928;7.084;2022-08-18T02:53:37;18.50;78.70
37560;DHT22;23398;50.928;7.084;2022-08-18T02:56:30;18.50;78.60
37560;DHT22;23398;50.928;7.084;2022-08-18T02:59:05;18.50;79.30
37560;DHT22;23398;50.928;7.084;2022-08-18T03:01:34;18.50;78.50
37560;DHT22;23398;50.928;7.084;2022-08-18T03:04:03;18.40;78.00
37560;DHT22;23398;50.928;7.084;2022-08-18T03:06:30;18.40;77.70
37560;DHT22;23398;50.928;7.084;2022-08-18T03:08:56;18.40;77.80
37560;DHT22;23398;50.928;7.084;2022-08-18T03:11:25;18.30;77.80
37560;DHT22;23398;50.928;7.084;2022-08-18T03:13:51;18.30;77.90
37560;DHT22;23398;50.928;7.084;2022-08-18T03:16:18;18.30;78.00
37560;DHT22;23398;50.928;7.084;2022-08-18T03:18:44;18.20;78.80
37560;DHT22;23398;50.928;7.084;2022-08-18T03:21:13;18.20;79.30
37560;DHT22;23398;50.928;7.084;2022-08-18T03:23:39;18.20;80.00
37560;DHT22;23398;50.928;7.084;2022-08-18T03:26:11;18.10;79.50
37560;DHT22;23398;50.928;7.084;2022-08-18T03:28:39;18.10;79.00
37560;DHT22;23398;50.928;7.084;2022-08-18T03:31:05;18.10;78.30
37560;DHT22;23398;50.928;7.084;2022-08-18T03:33:31;18.10;78.90
37560;DHT22;23398;50.928;7.084;2022-08-18T03:36:06;18.00;79.50
37560;DHT22;23398;50.928;7.084;2022-08-18T03:38:33;18.00;79.40
37560;DHT22;23398;50.928;7.084;2022-08-18T03:40:59;18.00;79.50
37560;DHT22;23398;50.928;7.084;2022-08-18T03:43:24;18.00;79.50
37560;DHT22;23398;50.928;7.084;2022-08-18T03:45:51;18.00;79.60
37560;DHT22;23398;50.928;7.084;2022-08-18T03:48:19;18.00;80.60
37560;DHT22;23398;50.928;7.084;2022-08-18T03:50:45;18.10;80.50
37560;DHT22;23398;50.928;7.084;2022-08-18T03:53:12;18.10;80.40
37560;DHT22;23398;50.928;7.084;2022-08-18T03:55:41;18.10;80.10
37560;DHT22;23398;50.928;7.084;2022-08-18T03:58:06;18.10;80.40
37560;DHT22;23398;50.928;7.084;2022-08-18T04:00:37;18.20;80.00
37560;DHT22;23398;50.928;7.084;2022-08-18T04:03:03;18.20;79.90
37560;DHT22;23398;50.928;7.084;2022-08-18T04:05:29;18.20;79.80
37560;DHT22;23398;50.928;7.084;2022-08-18T04:07:55;18.10;79.90
37560;DHT22;23398;50.928;7.084;2022-08-18T04:10:24;18.10;79.90
37560;DHT22;23398;50.928;7.084;2022-08-18T04:12:50;18.10;80.00
37560;DHT22;23398;50.928;7.084;2022-08-18T04:15:17;18.10;80.40
37560;DHT22;23398;50.928;7.084;2022-08-18T04:17:43;18.40;81.20
37560;DHT22;23398;50.928;7.084;2022-08-18T04:20:11;18.10;81.20
37560;DHT22;23398;50.928;7.084;2022-08-18T04:22:38;18.10;81.40
37560;DHT22;23398;50.928;7.084;2022-08-18T04:25:05;18.10;81.60
37560;DHT22;23398;50.928;7.084;2022-08-18T04:27:34;18.10;81.50
37560;DHT22;23398;50.928;7.084;2022-08-18T04:30:00;18.10;81.30
37560;DHT22;23398;50.928;7.084;2022-08-18T04:32:26;18.10;81.30
37560;DHT22;23398;50.928;7.084;2022-08-18T04:34:54;18.10;82.20
37560;DHT22;23398;50.928;7.084;2022-08-18T04:37:20;18.00;81.50
37560;DHT22;23398;50.928;7.084;2022-08-18T04:39:46;18.10;81.80
37560;DHT22;23398;50.928;7.084;2022-08-18T04:42:12;18.20;82.10
37560;DHT22;23398;50.928;7.084;2022-08-18T04:44:38;18.20;82.30
37560;DHT22;23398;50.928;7.084;2022-08-18T04:47:04;18.30;82.80
37560;DHT22;23398;50.928;7.084;2022-08-18T04:49:31;18.30;83.20
37560;DHT22;23398;50.928;7.084;2022-08-18T04:51:58;18.50;83.80
37560;DHT22;23398;50.928;7.084;2022-08-18T04:54:42;18.50;84.10
37560;DHT22;23398;50.928;7.084;2022-08-18T04:57:09;18.70;84.30
37560;DHT22;23398;50.928;7.084;2022-08-18T04:59:36;18.80;84.40
37560;DHT22;23398;50.928;7.084;2022-08-18T05:02:03;18.90;84.60
37560;DHT22;23398;50.928;7.084;2022-08-18T05:04:31;19.00;85.50
37560;DHT22;23398;50.928;7.084;2022-08-18T05:06:59;19.10;84.60
37560;DHT22;23398;50.928;7.084;2022-08-18T05:09:25;19.20;84.60
37560;DHT22;23398;50.928;7.084;2022-08-18T05:11:51;19.30;84.60
37560;DHT22;23398;50.928;7.084;2022-08-18T05:14:17;19.40;84.60
37560;DHT22;23398;50.928;7.084;2022-08-18T05:16:43;19.50;84.40
37560;DHT22;23398;50.928;7.084;2022-08-18T05:19:10;19.60;84.30
37560;DHT22;23398;50.928;7.084;2022-08-18T05:21:37;19.70;84.50
37560;DHT22;23398;50.928;7.084;2022-08-18T05:24:06;19.90;84.70
37560;DHT22;23398;50.928;7.084;2022-08-18T05:26:32;20.00;84.50
37560;DHT22;23398;50.928;7.084;2022-08-18T05:28:58;20.10;84.10
37560;DHT22;23398;50.928;7.084;2022-08-18T05:31:26;20.30;83.90
37560;DHT22;23398;50.928;7.084;2022-08-18T05:33:52;20.30;83.60
37560;DHT22;23398;50.928;7.084;2022-08-18T05:36:41;20.40;83.40
37560;DHT22;23398;50.928;7.084;2022-08-18T05:39:19;20.50;83.50
37560;DHT22;23398;50.928;7.084;2022-08-18T05:41:49;20.60;83.30
37560;DHT22;23398;50.928;7.084;2022-08-18T05:44:27;20.70;83.90
37560;DHT22;23398;50.928;7.084;2022-08-18T05:47:10;20.80;83.60
37560;DHT22;23398;50.928;7.084;2022-08-18T05:49:37;20.90;82.90
37560;DHT22;23398;50.928;7.084;2022-08-18T05:52:07;21.00;82.10
37560;DHT22;23398;50.928;7.084;2022-08-18T05:54:49;21.10;82.30
37560;DHT22;23398;50.928;7.084;2022-08-18T05:57:43;21.10;82.50
37560;DHT22;23398;50.928;7.084;2022-08-18T06:00:11;21.20;82.10
37560;DHT22;23398;50.928;7.084;2022-08-18T06:02:43;21.20;82.00
37560;DHT22;23398;50.928;7.084;2022-08-18T06:05:15;21.30;82.30
37560;DHT22;23398;50.928;7.084;2022-08-18T06:07:58;21.30;82.30
37560;DHT22;23398;50.928;7.084;2022-08-18T06:10:24;21.40;82.50
37560;DHT22;23398;50.928;7.084;2022-08-18T06:12:56;21.40;82.00
37560;DHT22;23398;50.928;7.084;2022-08-18T06:15:44;21.40;81.70
37560;DHT22;23398;50.928;7.084;2022-08-18T06:18:23;21.50;81.70
37560;DHT22;23398;50.928;7.084;2022-08-18T06:41:08;22.00;81.60
37560;DHT22;23398;50.928;7.084;2022-08-18T06:43:36;22.10;81.40
37560;DHT22;23398;50.928;7.084;2022-08-18T06:46:10;22.20;81.20
37560;DHT22;23398;50.928;7.084;2022-08-18T06:48:55;22.30;81.10
37560;DHT22;23398;50.928;7.084;2022-08-18T06:51:26;22.30;80.80
37560;DHT22;23398;50.928;7.084;2022-08-18T06:54:07;22.40;80.60
37560;DHT22;23398;50.928;7.084;2022-08-18T06:56:51;22.50;80.50
37560;DHT22;23398;50.928;7.084;2022-08-18T06:59:31;22.60;80.40
37560;DHT22;23398;50.928;7.084;2022-08-18T07:02:24;22.60;80.40
37560;DHT22;23398;50.928;7.084;2022-08-18T07:05:04;22.80;80.10
37560;DHT22;23398;50.928;7.084;2022-08-18T07:07:39;22.90;79.70
37560;DHT22;23398;50.928;7.084;2022-08-18T07:12:39;23.00;78.90
37560;DHT22;23398;50.928;7.084;2022-08-18T07:15:05;23.20;78.90
37560;DHT22;23398;50.928;7.084;2022-08-18T07:17:36;23.30;78.60
37560;DHT22;23398;50.928;7.084;2022-08-18T07:20:20;23.30;78.20
37560;DHT22;23398;50.928;7.084;2022-08-18T07:22:59;23.40;77.90
37560;DHT22;23398;50.928;7.084;2022-08-18T07:25:29;23.60;78.00
37560;DHT22;23398;50.928;7.084;2022-08-18T07:27:56;23.60;77.40
37560;DHT22;23398;50.928;7.084;2022-08-18T07:30:44;23.70;77.20
37560;DHT22;23398;50.928;7.084;2022-08-18T07:33:20;23.80;76.80
37560;DHT22;23398;50.928;7.084;2022-08-18T07:38:21;24.00;76.20
37560;DHT22;23398;50.928;7.084;2022-08-18T07:40:58;24.00;75.60
37560;DHT22;23398;50.928;7.084;2022-08-18T07:46:30;24.10;75.20
37560;DHT22;23398;50.928;7.084;2022-08-18T07:48:59;24.20;75.10
37560;DHT22;23398;50.928;7.084;2022-08-18T07:51:49;24.20;75.00
37560;DHT22;23398;50.928;7.084;2022-08-18T08:05:03;24.30;75.50
37560;DHT22;23398;50.928;7.084;2022-08-18T08:07:58;24.30;75.70
37560;DHT22;23398;50.928;7.084;2022-08-18T08:10:31;24.30;75.40
37560;DHT22;23398;50.928;7.084;2022-08-18T08:21:04;24.50;75.20
37560;DHT22;23398;50.928;7.084;2022-08-18T08:23:38;24.60;74.80
37560;DHT22;23398;50.928;7.084;2022-08-18T08:32:02;24.60;74.10
37560;DHT22;23398;50.928;7.084;2022-08-18T08:34:48;24.60;74.00
37560;DHT22;23398;50.928;7.084;2022-08-18T08:37:23;24.70;74.10
37560;DHT22;23398;50.928;7.084;2022-08-18T08:40:00;24.70;74.00
37560;DHT22;23398;50.928;7.084;2022-08-18T08:45:34;24.80;73.90
37560;DHT22;23398;50.928;7.084;2022-08-18T08:48:06;24.90;73.70
37560;DHT22;23398;50.928;7.084;2022-08-18T08:50:40;24.90;73.10
37560;DHT22;23398;50.928;7.084;2022-08-18T08:53:14;25.00;72.60
37560;DHT22;23398;50.928;7.084;2022-08-18T08:56:06;25.00;72.30
37560;DHT22;23398;50.928;7.084;2022-08-18T08:58:36;25.00;72.30
37560;DHT22;23398;50.928;7.084;2022-08-18T09:01:05;25.10;71.90
37560;DHT22;23398;50.928;7.084;2022-08-18T09:03:49;25.10;71.90
37560;DHT22;23398;50.928;7.084;2022-08-18T09:09:13;25.10;71.70
37560;DHT22;23398;50.928;7.084;2022-08-18T09:23:01;25.30;70.60
37560;DHT22;23398;50.928;7.084;2022-08-18T09:25:44;25.40;70.80
37560;DHT22;23398;50.928;7.084;2022-08-18T09:28:16;25.40;70.40
37560;DHT22;23398;50.928;7.084;2022-08-18T09:42:14;26.00;69.80
37560;DHT22;23398;50.928;7.084;2022-08-18T09:44:56;26.20;69.80
37560;DHT22;23398;50.928;7.084;2022-08-18T09:49:53;26.80;68.50
37560;DHT22;23398;50.928;7.084;2022-08-18T09:54:58;27.20;66.60
37560;DHT22;23398;50.928;7.084;2022-08-18T09:57:31;27.60;66.70
37560;DHT22;23398;50.928;7.084;2022-08-18T10:07:45;28.60;62.90
37560;DHT22;23398;50.928;7.084;2022-08-18T10:10:20;28.80;62.30
37560;DHT22;23398;50.928;7.084;2022-08-18T10:18:12;29.40;60.90
37560;DHT22;23398;50.928;7.084;2022-08-18T10:23:52;29.60;59.60
37560;DHT22;23398;50.928;7.084;2022-08-18T10:28:57;29.90;59.00
37560;DHT22;23398;50.928;7.084;2022-08-18T10:31:23;30.00;58.50
37560;DHT22;23398;50.928;7.084;2022-08-18T10:34:10;30.10;57.80
37560;DHT22;23398;50.928;7.084;2022-08-18T10:39:16;30.30;57.50
37560;DHT22;23398;50.928;7.084;2022-08-18T10:44:54;30.60;57.60
37560;DHT22;23398;50.928;7.084;2022-08-18T10:47:28;30.80;56.90
37560;DHT22;23398;50.928;7.084;2022-08-18T10:49:55;31.00;56.90
37560;DHT22;23398;50.928;7.084;2022-08-18T11:00:08;32.30;54.00
37560;DHT22;23398;50.928;7.084;2022-08-18T11:05:17;33.10;52.80
37560;DHT22;23398;50.928;7.084;2022-08-18T11:07:47;33.30;52.00
37560;DHT22;23398;50.928;7.084;2022-08-18T11:10:20;33.50;51.20
37560;DHT22;23398;50.928;7.084;2022-08-18T11:20:45;33.50;49.40
37560;DHT22;23398;50.928;7.084;2022-08-18T11:23:13;33.40;49.60
37560;DHT22;23398;50.928;7.084;2022-08-18T11:25:39;33.30;49.30
37560;DHT22;23398;50.928;7.084;2022-08-18T11:28:18;33.20;49.40
37560;DHT22;23398;50.928;7.084;2022-08-18T11:30:46;33.00;49.20
37560;DHT22;23398;50.928;7.084;2022-08-18T11:33:15;33.00;49.10
37560;DHT22;23398;50.928;7.084;2022-08-18T11:35:54;32.80;49.10
37560;DHT22;23398;50.928;7.084;2022-08-18T11:38:25;32.60;49.50
37560;DHT22;23398;50.928;7.084;2022-08-18T11:41:13;32.50;49.40
37560;DHT22;23398;50.928;7.084;2022-08-18T11:43:41;32.40;49.70
37560;DHT22;23398;50.928;7.084;2022-08-18T11:48:50;32.30;49.70
37560;DHT22;23398;50.928;7.084;2022-08-18T11:51:20;32.30;49.90
37560;DHT22;23398;50.928;7.084;2022-08-18T11:58:52;32.50;49.80
37560;DHT22;23398;50.928;7.084;2022-08-18T12:09:19;33.00;48.30
37560;DHT22;23398;50.928;7.084;2022-08-18T12:11:55;33.10;47.80
37560;DHT22;23398;50.928;7.084;2022-08-18T12:14:25;33.10;47.40
37560;DHT22;23398;50.928;7.084;2022-08-18T12:16:52;33.20;47.70
37560;DHT22;23398;50.928;7.084;2022-08-18T12:19:18;33.20;47.60
37560;DHT22;23398;50.928;7.084;2022-08-18T12:21:50;33.30;48.00
37560;DHT22;23398;50.928;7.084;2022-08-18T12:24:26;33.40;47.70
37560;DHT22;23398;50.928;7.084;2022-08-18T12:26:52;33.40;47.30
37560;DHT22;23398;50.928;7.084;2022-08-18T12:29:18;33.50;47.20
37560;DHT22;23398;50.928;7.084;2022-08-18T12:31:45;33.60;46.60
37560;DHT22;23398;50.928;7.084;2022-08-18T12:34:11;33.60;46.60
37560;DHT22;23398;50.928;7.084;2022-08-18T12:36:37;33.70;46.30
37560;DHT22;23398;50.928;7.084;2022-08-18T12:39:03;33.70;46.40
37560;DHT22;23398;50.928;7.084;2022-08-18T12:41:29;33.60;46.70
37560;DHT22;23398;50.928;7.084;2022-08-18T12:43:55;33.50;47.20
37560;DHT22;23398;50.928;7.084;2022-08-18T12:46:20;33.60;46.80
37560;DHT22;23398;50.928;7.084;2022-08-18T12:48:46;33.60;46.90
37560;DHT22;23398;50.928;7.084;2022-08-18T12:51:13;33.60;46.30
37560;DHT22;23398;50.928;7.084;2022-08-18T12:53:39;33.60;46.70
37560;DHT22;23398;50.928;7.084;2022-08-18T12:56:22;33.70;46.50
37560;DHT22;23398;50.928;7.084;2022-08-18T12:58:49;33.80;46.30
37560;DHT22;23398;50.928;7.084;2022-08-18T13:01:16;33.90;46.30
37560;DHT22;23398;50.928;7.084;2022-08-18T13:03:42;33.90;46.10
37560;DHT22;23398;50.928;7.084;2022-08-18T13:06:09;34.00;45.20
37560;DHT22;23398;50.928;7.084;2022-08-18T13:08:36;34.10;44.90
37560;DHT22;23398;50.928;7.084;2022-08-18T13:11:02;34.20;45.40
37560;DHT22;23398;50.928;7.084;2022-08-18T13:13:28;34.30;44.50
37560;DHT22;23398;50.928;7.084;2022-08-18T13:15:53;34.20;44.70
37560;DHT22;23398;50.928;7.084;2022-08-18T13:18:20;34.10;44.80
37560;DHT22;23398;50.928;7.084;2022-08-18T13:20:46;34.00;44.90
37560;DHT22;23398;50.928;7.084;2022-08-18T13:23:11;33.90;44.90
37560;DHT22;23398;50.928;7.084;2022-08-18T13:25:37;33.80;45.00
37560;DHT22;23398;50.928;7.084;2022-08-18T13:28:03;33.70;45.20
37560;DHT22;23398;50.928;7.084;2022-08-18T13:30:30;33.60;45.40
37560;DHT22;23398;50.928;7.084;2022-08-18T13:32:56;33.60;45.70
37560;DHT22;23398;50.928;7.084;2022-08-18T13:35:21;33.50;46.00
37560;DHT22;23398;50.928;7.084;2022-08-18T13:37:47;33.30;45.70
37560;DHT22;23398;50.928;7.084;2022-08-18T13:40:13;33.30;46.00
37560;DHT22;23398;50.928;7.084;2022-08-18T13:42:44;33.30;45.90
37560;DHT22;23398;50.928;7.084;2022-08-18T13:45:11;33.30;46.20
37560;DHT22;23398;50.928;7.084;2022-08-18T13:47:39;33.30;45.80
37560;DHT22;23398;50.928;7.084;2022-08-18T13:50:05;33.30;46.30
37560;DHT22;23398;50.928;7.084;2022-08-18T13:52:30;33.30;45.90
37560;DHT22;23398;50.928;7.084;2022-08-18T13:54:57;33.40;46.00
37560;DHT22;23398;50.928;7.084;2022-08-18T13:57:22;33.40;46.20
37560;DHT22;23398;50.928;7.084;2022-08-18T13:59:48;33.40;45.60
37560;DHT22;23398;50.928;7.084;2022-08-18T14:02:13;33.50;45.80
37560;DHT22;23398;50.928;7.084;2022-08-18T14:04:39;33.40;45.90
37560;DHT22;23398;50.928;7.084;2022-08-18T14:07:07;33.40;45.60
37560;DHT22;23398;50.928;7.084;2022-08-18T14:09:34;33.40;45.50
37560;DHT22;23398;50.928;7.084;2022-08-18T14:12:02;33.40;45.80
37560;DHT22;23398;50.928;7.084;2022-08-18T14:14:28;33.40;45.50
37560;DHT22;23398;50.928;7.084;2022-08-18T14:16:53;33.40;46.10
37560;DHT22;23398;50.928;7.084;2022-08-18T14:19:19;33.40;46.00
37560;DHT22;23398;50.928;7.084;2022-08-18T14:22:03;33.30;46.30
37560;DHT22;23398;50.928;7.084;2022-08-18T14:24:47;33.30;45.70
37560;DHT22;23398;50.928;7.084;2022-08-18T14:27:34;33.30;46.00
37560;DHT22;23398;50.928;7.084;2022-08-18T14:30:05;33.20;45.80
37560;DHT22;23398;50.928;7.084;2022-08-18T14:32:31;33.20;45.60
37560;DHT22;23398;50.928;7.084;2022-08-18T14:34:59;33.10;45.80
37560;DHT22;23398;50.928;7.084;2022-08-18T14:37:25;33.20;45.60
37560;DHT22;23398;50.928;7.084;2022-08-18T14:39:51;33.00;45.70
37560;DHT22;23398;50.928;7.084;2022-08-18T14:42:18;33.00;45.40
37560;DHT22;23398;50.928;7.084;2022-08-18T14:44:46;32.80;45.60
37560;DHT22;23398;50.928;7.084;2022-08-18T14:47:12;32.70;45.30
37560;DHT22;23398;50.928;7.084;2022-08-18T14:49:37;32.60;45.60
37560;DHT22;23398;50.928;7.084;2022-08-18T14:52:07;32.60;45.60
37560;DHT22;23398;50.928;7.084;2022-08-18T14:54:34;32.60;45.60
37560;DHT22;23398;50.928;7.084;2022-08-18T14:57:01;32.50;45.90
37560;DHT22;23398;50.928;7.084;2022-08-18T14:59:28;32.50;46.20
37560;DHT22;23398;50.928;7.084;2022-08-18T15:01:58;32.50;45.90
37560;DHT22;23398;50.928;7.084;2022-08-18T15:04:24;32.40;46.00
37560;DHT22;23398;50.928;7.084;2022-08-18T15:06:51;32.40;45.50
37560;DHT22;23398;50.928;7.084;2022-08-18T15:09:17;32.40;45.90
37560;DHT22;23398;50.928;7.084;2022-08-18T15:11:42;32.30;45.60
37560;DHT22;23398;50.928;7.084;2022-08-18T15:14:08;32.30;46.10
37560;DHT22;23398;50.928;7.084;2022-08-18T15:16:34;32.20;46.00
37560;DHT22;23398;50.928;7.084;2022-08-18T15:19:02;32.20;45.90
37560;DHT22;23398;50.928;7.084;2022-08-18T15:21:29;32.20;46.10
37560;DHT22;23398;50.928;7.084;2022-08-18T15:24:14;32.10;46.00
37560;DHT22;23398;50.928;7.084;2022-08-18T15:26:58;32.00;45.90
37560;DHT22;23398;50.928;7.084;2022-08-18T15:29:25;31.90;45.80
37560;DHT22;23398;50.928;7.084;2022-08-18T15:31:51;31.90;45.60
37560;DHT22;23398;50.928;7.084;2022-08-18T15:34:17;31.80;45.80
37560;DHT22;23398;50.928;7.084;2022-08-18T15:36:43;31.70;45.70
37560;DHT22;23398;50.928;7.084;2022-08-18T15:39:08;31.60;45.70
37560;DHT22;23398;50.928;7.084;2022-08-18T15:41:37;31.50;45.70
37560;DHT22;23398;50.928;7.084;2022-08-18T15:44:05;31.40;46.00
37560;DHT22;23398;50.928;7.084;2022-08-18T15:46:33;31.20;46.20
37560;DHT22;23398;50.928;7.084;2022-08-18T15:49:00;31.10;46.50
37560;DHT22;23398;50.928;7.084;2022-08-18T15:51:26;31.00;46.70
37560;DHT22;23398;50.928;7.084;2022-08-18T15:53:52;30.90;46.60
37560;DHT22;23398;50.928;7.084;2022-08-18T15:56:21;30.80;47.00
37560;DHT22;23398;50.928;7.084;2022-08-18T15:58:49;30.70;47.00
37560;DHT22;23398;50.928;7.084;2022-08-18T16:01:15;30.60;47.20
37560;DHT22;23398;50.928;7.084;2022-08-18T16:03:41;30.50;47.00
37560;DHT22;23398;50.928;7.084;2022-08-18T16:06:12;30.50;46.90
37560;DHT22;23398;50.928;7.084;2022-08-18T16:08:39;30.40;46.80
37560;DHT22;23398;50.928;7.084;2022-08-18T16:11:10;30.30;47.20
37560;DHT22;23398;50.928;7.084;2022-08-18T16:13:37;30.20;47.10
37560;DHT22;23398;50.928;7.084;2022-08-18T16:16:11;30.10;47.20
37560;DHT22;23398;50.928;7.084;2022-08-18T16:18:38;30.00;47.10
37560;DHT22;23398;50.928;7.084;2022-08-18T16:21:06;30.00;47.20
37560;DHT22;23398;50.928;7.084;2022-08-18T16:23:38;29.90;47.40
37560;DHT22;23398;50.928;7.084;2022-08-18T16:26:05;29.80;47.60
37560;DHT22;23398;50.928;7.084;2022-08-18T16:28:31;29.70;47.80
37560;DHT22;23398;50.928;7.084;2022-08-18T16:30:56;29.70;47.60
37560;DHT22;23398;50.928;7.084;2022-08-18T16:33:22;29.70;47.80
37560;DHT22;23398;50.928;7.084;2022-08-18T16:35:48;29.50;47.90
37560;DHT22;23398;50.928;7.084;2022-08-18T16:38:16;29.50;48.00
37560;DHT22;23398;50.928;7.084;2022-08-18T16:40:42;29.40;48.00
37560;DHT22;23398;50.928;7.084;2022-08-18T16:43:08;29.40;48.00
37560;DHT22;23398;50.928;7.084;2022-08-18T16:45:38;29.30;48.10
37560;DHT22;23398;50.928;7.084;2022-08-18T16:48:08;29.30;48.60
37560;DHT22;23398;50.928;7.084;2022-08-18T16:50:34;29.20;48.60
37560;DHT22;23398;50.928;7.084;2022-08-18T16:53:00;29.20;49.30
37560;DHT22;23398;50.928;7.084;2022-08-18T16:55:26;29.10;48.90
37560;DHT22;23398;50.928;7.084;2022-08-18T16:57:52;29.10;49.00
37560;DHT22;23398;50.928;7.084;2022-08-18T17:00:36;29.10;49.10
37560;DHT22;23398;50.928;7.084;2022-08-18T17:03:24;29.00;49.20
37560;DHT22;23398;50.928;7.084;2022-08-18T17:06:14;29.00;49.10
37560;DHT22;23398;50.928;7.084;2022-08-18T17:08:41;29.00;49.10
37560;DHT22;23398;50.928;7.084;2022-08-18T17:11:10;28.90;49.20
37560;DHT22;23398;50.928;7.084;2022-08-18T17:13:38;28.90;49.20
37560;DHT22;23398;50.928;7.084;2022-08-18T17:16:05;28.90;49.40
37560;DHT22;23398;50.928;7.084;2022-08-18T17:18:32;28.80;49.50
37560;DHT22;23398;50.928;7.084;2022-08-18T17:21:05;28.80;49.50
37560;DHT22;23398;50.928;7.084;2022-08-18T17:23:32;28.70;49.60
37560;DHT22;23398;50.928;7.084;2022-08-18T17:26:00;28.70;49.60
37560;DHT22;23398;50.928;7.084;2022-08-18T17:28:35;28.60;49.60
37560;DHT22;23398;50.928;7.084;2022-08-18T17:31:04;28.60;49.60
37560;DHT22;23398;50.928;7.084;2022-08-18T17:33:32;28.60;49.70
37560;DHT22;23398;50.928;7.084;2022-08-18T17:36:04;28.50;49.80
37560;DHT22;23398;50.928;7.084;2022-08-18T17:38:45;28.50;49.90
37560;DHT22;23398;50.928;7.084;2022-08-18T17:41:19;28.40;50.00
37560;DHT22;23398;50.928;7.084;2022-08-18T17:43:45;28.40;50.10
37560;DHT22;23398;50.928;7.084;2022-08-18T17:46:30;28.30;50.30
37560;DHT22;23398;50.928;7.084;2022-08-18T17:52:36;28.20;50.40
37560;DHT22;23398;50.928;7.084;2022-08-18T17:55:22;28.20;50.70
37560;DHT22;23398;50.928;7.084;2022-08-18T17:57:58;28.10;50.70
37560;DHT22;23398;50.928;7.084;2022-08-18T18:00:26;28.10;50.90
37560;DHT22;23398;50.928;7.084;2022-08-18T18:02:53;28.00;51.20
37560;DHT22;23398;50.928;7.084;2022-08-18T18:05:20;28.00;51.30
37560;DHT22;23398;50.928;7.084;2022-08-18T18:10:25;27.80;51.30
37560;DHT22;23398;50.928;7.084;2022-08-18T18:15:31;27.70;51.70
37560;DHT22;23398;50.928;7.084;2022-08-18T18:21:03;27.60;51.80
37560;DHT22;23398;50.928;7.084;2022-08-18T18:23:42;27.60;51.90
37560;DHT22;23398;50.928;7.084;2022-08-18T18:26:28;27.50;53.70
37560;DHT22;23398;50.928;7.084;2022-08-18T18:29:15;27.50;53.00